Time;durP1;ratioP1;P1;durP2;ratioP2;P2;SDS_P1;SDS_P2;PMS_P1;PMS_P2;Temp;Humidity;BMP_temperature;BMP_pressure;BME280_temperature;BME280_humidity;BME280_pressure;Samples;Min_cycle;Max_cycle;Signal;HPM_P1;HPM_P2
2021/11/02 00:01:26;;;;;;;6.60;5.97;;;;;;;5.38;100.00;94833.88;5090017;28;20027;-59
2021/11/02 00:03:52;;;;;;;10.07;5.72;;;;;;;5.40;100.00;94825.94;5090934;28;20028;-59
2021/11/02 00:06:17;;;;;;;7.15;5.22;;;;;;;5.42;100.00;94837.91;5090857;28;20020;-59
2021/11/02 00:08:43;;;;;;;5.28;4.80;;;;;;;5.44;100.00;94837.75;5090767;28;20386;-59
2021/11/02 00:11:08;;;;;;;6.07;4.88;;;;;;;5.48;100.00;94835.72;5090844;28;20568;-59
2021/11/02 00:13:37;;;;;;;5.40;4.82;;;;;;;5.45;100.00;94834.19;5090975;28;20077;-58
2021/11/02 00:16:06;;;;;;;6.97;4.28;;;;;;;5.40;100.00;94841.59;5090702;28;20131;-59
2021/11/02 00:18:32;;;;;;;7.43;5.05;;;;;;;5.38;100.00;94844.31;5090651;28;20039;-59
2021/11/02 00:21:01;;;;;;;6.60;4.78;;;;;;;5.40;100.00;94838.97;5090496;28;20024;-59
2021/11/02 00:23:29;;;;;;;6.78;4.40;;;;;;;5.48;100.00;94840.94;5090595;28;20016;-59
2021/11/02 00:25:54;;;;;;;8.82;5.07;;;;;;;5.52;100.00;94839.72;5090254;28;20043;-59
2021/11/02 00:28:20;;;;;;;8.38;5.70;;;;;;;5.55;100.00;94839.44;5090631;28;20063;-59
2021/11/02 00:30:45;;;;;;;6.75;6.07;;;;;;;5.53;100.00;94836.16;5090356;28;20027;-58
2021/11/02 00:33:11;;;;;;;9.80;5.72;;;;;;;5.53;100.00;94831.78;5090354;28;20020;-59
2021/11/02 00:35:37;;;;;;;6.00;5.45;;;;;;;5.57;100.00;94829.69;5090641;28;20028;-59
2021/11/02 00:38:03;;;;;;;6.38;5.47;;;;;;;5.56;100.00;94834.13;5090122;28;20165;-59
2021/11/02 00:40:28;;;;;;;6.55;5.90;;;;;;;5.58;100.00;94819.13;5090108;28;20123;-59
2021/11/02 00:43:04;;;;;;;7.28;5.93;;;;;;;5.56;100.00;94822.81;5089994;28;20031;-59
2021/11/02 00:45:36;;;;;;;8.50;5.45;;;;;;;5.56;100.00;94826.28;5090327;28;20016;-59
2021/11/02 00:48:07;;;;;;;5.95;5.40;;;;;;;5.61;100.00;94823.25;5090188;28;20101;-59
2021/11/02 00:50:36;;;;;;;5.55;5.05;;;;;;;5.67;100.00;94819.28;5090171;28;20028;-59
2021/11/02 00:53:03;;;;;;;5.88;5.03;;;;;;;5.71;100.00;94813.66;5090127;28;20028;-58
2021/11/02 00:55:29;;;;;;;5.32;4.72;;;;;;;5.75;100.00;94809.03;5090281;28;20039;-59
2021/11/02 00:57:55;;;;;;;4.22;3.80;;;;;;;5.78;100.00;94807.91;5090092;28;20027;-59
2021/11/02 01:00:23;;;;;;;6.05;4.00;;;;;;;5.77;100.00;94803.63;5089877;28;20032;-59
2021/11/02 01:02:48;;;;;;;3.90;3.60;;;;;;;5.78;100.00;94807.91;5089989;28;20017;-58
2021/11/02 01:05:14;;;;;;;3.47;3.17;;;;;;;5.77;100.00;94801.03;5090021;28;20043;-59
2021/11/02 01:07:40;;;;;;;4.25;3.88;;;;;;;5.78;100.00;94800.06;5090164;28;20142;-59
2021/11/02 01:10:12;;;;;;;5.50;4.30;;;;;;;5.79;100.00;94805.16;5090185;28;20081;-59
2021/11/02 01:12:38;;;;;;;4.18;3.88;;;;;;;5.78;100.00;94807.91;5092775;28;20024;-58
2021/11/02 01:15:04;;;;;;;4.03;3.80;;;;;;;5.75;100.00;94816.84;5089917;28;20518;-59
2021/11/02 01:17:30;;;;;;;4.20;3.80;;;;;;;5.73;100.00;94811.75;5092355;28;20056;-59
2021/11/02 01:19:56;;;;;;;4.47;3.72;;;;;;;5.72;100.00;94810.09;5093727;28;20137;-59
2021/11/02 01:22:21;;;;;;;5.72;3.53;;;;;;;5.74;100.00;94802.13;5093539;28;20032;-59
2021/11/02 01:24:47;;;;;;;3.78;3.47;;;;;;;5.76;100.00;94807.22;5093435;28;20027;-59
2021/11/02 01:27:12;;;;;;;4.57;4.18;;;;;;;5.77;100.00;94796.66;5093925;28;20411;-60
2021/11/02 01:29:37;;;;;;;5.03;3.83;;;;;;;5.78;100.00;94798.28;5093762;28;20032;-59
2021/11/02 01:32:03;;;;;;;6.03;3.95;;;;;;;5.78;100.00;94798.28;5093750;28;20399;-60
2021/11/02 01:34:28;;;;;;;4.97;4.30;;;;;;;5.79;100.00;94792.09;5093450;28;20099;-62
2021/11/02 01:36:54;;;;;;;4.35;3.95;;;;;;;5.75;100.00;94782.91;5093068;28;20403;-62
2021/11/02 01:39:21;;;;;;;9.30;8.45;;;;;;;5.72;100.00;94776.16;5093026;28;20594;-62
2021/11/02 01:41:48;;;;;;;7.15;6.43;;;;;;;5.82;100.00;94783.16;5092227;28;20066;-62
2021/11/02 01:44:13;;;;;;;9.02;5.57;;;;;;;5.79;100.00;94779.06;5092341;28;20403;-62
2021/11/02 01:46:40;;;;;;;6.88;6.25;;;;;;;5.79;100.00;94778.22;5091994;28;20028;-62
2021/11/02 01:49:07;;;;;;;5.70;5.22;;;;;;;5.77;100.00;94769.69;5092352;28;20036;-62
2021/11/02 01:51:33;;;;;;;6.13;5.68;;;;;;;5.76;100.00;94768.88;5091832;28;20020;-62
2021/11/02 01:54:00;;;;;;;6.60;5.97;;;;;;;5.77;100.00;94770.53;5089679;28;21091;-62
2021/11/02 01:56:25;;;;;;;9.30;6.07;;;;;;;5.76;100.00;94762.81;5088728;28;20514;-62
2021/11/02 01:58:55;;;;;;;6.97;6.45;;;;;;;5.77;100.00;94754.84;5088805;28;20066;-62
2021/11/02 02:01:39;;;;;;;6.72;6.22;;;;;;;5.73;100.00;94758.66;5089833;28;20028;-62
2021/11/02 02:04:04;;;;;;;7.25;6.75;;;;;;;5.68;100.00;94753.88;5079231;28;20060;-62
2021/11/02 02:06:49;;;;;;;7.60;6.88;;;;;;;5.65;100.00;94748.94;5083094;28;20056;-62
2021/11/02 02:09:26;;;;;;;7.38;6.47;;;;;;;5.69;100.00;94745.06;5079445;28;20024;-62
2021/11/02 02:12:20;;;;;;;8.32;7.53;;;;;;;5.74;100.00;94749.88;5079402;28;20029;-62
2021/11/02 02:15:09;;;;;;;9.60;6.05;;;;;;;5.83;100.00;94748.25;5075442;28;20024;-62
2021/11/02 02:17:42;;;;;;;7.35;5.97;;;;;;;5.77;100.00;94751.41;5073553;28;20093;-62
2021/11/02 02:20:46;;;;;;;6.32;5.40;;;;;;;5.86;100.00;94750.59;5077052;28;20518;-62
2021/11/02 02:23:33;;;;;;;5.60;4.95;;;;;;;5.70;100.00;94757.19;5060115;28;20040;-62
2021/11/02 02:26:38;;;;;;;5.43;4.93;;;;;;;5.71;100.00;94755.38;5085350;28;20016;-62
2021/11/02 02:29:06;;;;;;;5.50;5.07;;;;;;;5.65;100.00;94766.38;5080779;28;20052;-62
2021/11/02 02:31:34;;;;;;;5.68;5.18;;;;;;;5.68;100.00;94758.25;5079330;28;20028;-62
2021/11/02 02:34:01;;;;;;;5.57;5.10;;;;;;;5.68;100.00;94751.25;5073700;28;20050;-62
2021/11/02 02:36:31;;;;;;;5.28;4.82;;;;;;;5.69;100.00;94752.06;5075336;28;20528;-61
2021/11/02 02:38:59;;;;;;;5.10;4.65;;;;;;;5.78;100.00;94751.28;5076871;28;20561;-61
2021/11/02 02:41:26;;;;;;;5.45;4.90;;;;;;;5.78;100.00;94751.28;5083082;28;20031;-61
2021/11/02 02:43:53;;;;;;;4.95;4.40;;;;;;;5.78;100.00;94755.66;5082470;28;20033;-62
2021/11/02 02:46:19;;;;;;;5.13;4.07;;;;;;;5.78;100.00;94759.13;5082030;28;20039;-61
2021/11/02 02:48:46;;;;;;;4.32;3.92;;;;;;;5.74;100.00;94745.50;5083701;28;20080;-62
2021/11/02 02:51:13;;;;;;;7.22;3.85;;;;;;;5.79;100.00;94758.16;5082013;28;20012;-61
2021/11/02 02:53:43;;;;;;;4.22;2.80;;;;;;;5.78;100.00;94753.88;5078793;28;20024;-62
2021/11/02 02:56:10;;;;;;;7.55;2.83;;;;;;;5.74;100.00;94749.88;5076910;28;20024;-62
2021/11/02 02:58:42;;;;;;;1.95;1.85;;;;;;;5.83;100.00;94764.75;5076122;28;20398;-61
2021/11/02 03:01:10;;;;;;;2.90;2.55;;;;;;;5.87;100.00;94766.13;5081859;28;20601;-61
2021/11/02 03:03:58;;;;;;;4.95;3.30;;;;;;;5.94;100.00;94755.97;5078240;28;20043;-61
2021/11/02 03:06:26;;;;;;;4.22;3.80;;;;;;;5.97;100.00;94747.84;5080855;28;20043;-61
2021/11/02 03:08:55;;;;;;;4.78;3.67;;;;;;;5.95;100.00;94751.56;5083383;28;20437;-61
2021/11/02 03:11:22;;;;;;;3.88;3.47;;;;;;;5.94;100.00;94731.59;5081447;28;20112;-62
2021/11/02 03:13:52;;;;;;;3.92;3.63;;;;;;;5.95;100.00;94747.16;5078744;28;20025;-61
2021/11/02 03:16:23;;;;;;;4.60;4.20;;;;;;;5.98;100.00;94733.81;5079908;28;20043;-61
2021/11/02 04:38:52;;;;;;;2.80;2.60;;;;;;;6.33;100.00;94809.25;5074576;28;20039;-61
2021/11/02 05:07:34;;;;;;;1.50;1.40;;;;;;;6.18;100.00;94835.78;5084909;28;20071;-61
2021/11/02 05:58:42;;;;;;;1.25;1.15;;;;;;;6.17;100.00;94849.81;5079540;28;20024;-61
2021/11/02 06:09:23;;;;;;;4.35;1.38;;;;;;;6.15;100.00;94841.28;5088926;28;20024;-62
2021/11/02 06:28:32;;;;;;;2.15;1.95;;;;;;;6.15;100.00;94863.00;5078910;28;20040;-61
2021/11/02 06:31:15;;;;;;;3.50;2.08;;;;;;;6.15;100.00;94862.19;5086789;28;20140;-61
2021/11/02 06:33:56;;;;;;;3.65;2.80;;;;;;;6.14;100.00;94881.47;5087350;28;20506;-61
2021/11/02 08:47:34;;;;;;;20.55;18.35;;;;;;;7.43;100.00;94987.81;5075355;28;20036;-60
2021/11/02 08:50:01;;;;;;;24.73;20.77;;;;;;;7.37;100.00;94994.41;5079241;28;20495;-60
2021/11/02 08:52:27;;;;;;;12.13;10.95;;;;;;;7.37;100.00;95004.91;5076923;28;20293;-60
2021/11/02 08:54:56;;;;;;;10.35;9.38;;;;;;;7.28;100.00;94997.88;5078184;28;20484;-60
2021/11/02 08:57:24;;;;;;;9.43;8.65;;;;;;;7.19;100.00;94996.09;5081858;28;20032;-60
2021/11/02 08:59:51;;;;;;;8.70;8.02;;;;;;;7.08;100.00;95000.50;5082020;28;20028;-60
2021/11/02 09:02:27;;;;;;;7.03;6.50;;;;;;;6.99;100.00;94996.91;5076875;28;20028;-60
2021/11/02 09:05:18;;;;;;;8.20;7.43;;;;;;;6.99;100.00;94993.47;5079924;28;20032;-60
2021/11/02 09:07:49;;;;;;;8.70;7.97;;;;;;;7.13;100.00;94997.47;5081056;28;20032;-60
2021/11/02 09:10:19;;;;;;;9.85;8.85;;;;;;;7.26;100.00;94997.19;5084918;28;20020;-60
2021/11/02 09:12:50;;;;;;;10.38;9.38;;;;;;;7.36;100.00;94986.72;5081527;28;20052;-61
2021/11/02 09:15:21;;;;;;;6.05;5.40;;;;;;;7.47;100.00;94990.97;5076401;28;20103;-60
2021/11/02 09:17:48;;;;;;;5.13;4.68;;;;;;;7.51;100.00;95000.22;5076360;28;20065;-60
2021/11/02 09:20:15;;;;;;;5.75;4.53;;;;;;;7.53;100.00;94999.13;5078886;28;20562;-60
2021/11/02 09:22:47;;;;;;;5.35;4.85;;;;;;;7.56;100.00;94993.59;5080331;28;20115;-60
2021/11/02 09:25:18;;;;;;;6.90;6.30;;;;;;;7.62;100.00;94996.59;5075969;28;20028;-60
2021/11/02 09:27:52;;;;;;;8.50;5.15;;;;;;;7.63;100.00;94996.47;5074925;28;20031;-60
2021/11/02 09:30:21;;;;;;;5.00;4.50;;;;;;;7.67;100.00;95000.47;5092613;28;20082;-60
2021/11/02 09:32:53;;;;;;;4.53;4.13;;;;;;;7.72;100.00;94995.63;5083806;28;20032;-60
2021/11/02 09:35:21;;;;;;;4.75;4.45;;;;;;;7.82;100.00;94994.75;5084237;28;20533;-60
2021/11/02 09:37:58;;;;;;;8.60;4.25;;;;;;;7.96;100.00;94991.69;5081220;28;20613;-60
2021/11/02 09:40:30;;;;;;;3.42;3.13;;;;;;;8.07;100.00;95000.34;5079414;28;20072;-60
2021/11/02 09:43:30;;;;;;;3.00;2.80;;;;;;;8.32;100.00;95004.13;5084454;28;20024;-60
2021/11/02 09:46:30;;;;;;;9.40;6.95;;;;;;;8.74;99.51;94998.41;5085934;28;20566;-60
2021/11/02 09:49:20;;;;;;;8.10;4.30;;;;;;;8.98;92.61;94998.81;5074884;28;20119;-60
2021/11/02 09:52:20;;;;;;;4.82;3.92;;;;;;;8.94;92.63;94997.44;5076124;28;20020;-60
2021/11/02 09:55:19;;;;;;;2.53;2.33;;;;;;;8.87;92.33;94990.16;5080522;28;20085;-60
2021/11/02 09:58:03;;;;;;;3.25;2.95;;;;;;;8.84;93.85;95003.59;5086531;27;20028;-60
2021/11/02 10:00:41;;;;;;;5.15;4.03;;;;;;;8.77;94.68;95009.56;5085569;28;20031;-60
2021/11/02 10:03:19;;;;;;;3.60;3.20;;;;;;;8.72;95.28;95008.22;5083920;28;20035;-60
2021/11/02 10:05:49;;;;;;;2.08;1.98;;;;;;;8.67;94.02;95007.84;5086485;28;20039;-60
2021/11/02 10:08:37;;;;;;;2.95;2.75;;;;;;;8.62;93.89;94988.25;5078871;28;20028;-59
2021/11/02 10:11:39;;;;;;;4.50;2.00;;;;;;;8.59;94.57;94997.25;5084516;28;20028;-58
2021/11/02 10:14:15;;;;;;;1.85;1.67;;;;;;;8.51;94.71;94991.91;5029676;28;20029;-58
2021/11/02 10:16:49;;;;;;;1.90;1.80;;;;;;;8.47;93.78;94993.97;5075450;28;20525;-57
2021/11/02 10:19:45;;;;;;;3.08;1.50;;;;;;;8.48;91.67;94997.41;5086737;28;20043;-59
2021/11/02 10:22:37;;;;;;;1.65;1.55;;;;;;;8.85;82.27;95001.81;5085289;28;20157;-59
2021/11/02 10:25:29;;;;;;;1.88;1.38;;;;;;;8.57;80.12;94997.41;5083382;28;20400;-58
2021/11/02 10:28:19;;;;;;;1.50;1.40;;;;;;;8.77;77.68;94997.28;5058237;28;20027;-58
2021/11/02 10:30:56;;;;;;;1.10;1.00;;;;;;;8.73;78.16;94995.91;5074297;28;20512;-60
2021/11/02 10:33:39;;;;;;;0.95;0.95;;;;;;;8.89;79.75;94990.84;5085816;28;20027;-57
2021/11/02 10:36:22;;;;;;;1.20;1.20;;;;;;;8.98;81.59;94978.63;5086636;28;20779;-58
2021/11/02 10:39:09;;;;;;;1.08;1.08;;;;;;;9.15;82.83;94984.84;5081328;28;20074;-62
2021/11/02 10:41:44;;;;;;;1.20;1.10;;;;;;;9.49;80.39;94974.63;5080069;28;20024;-57
2021/11/02 10:44:27;;;;;;;0.80;0.80;;;;;;;9.79;76.93;94975.16;5083017;28;20118;-57
2021/11/02 10:47:13;;;;;;;1.63;1.20;;;;;;;9.73;79.14;94973.97;5084404;28;20031;-60
2021/11/02 10:50:04;;;;;;;3.75;1.40;;;;;;;9.88;81.61;94968.97;5077159;28;20048;-58
2021/11/02 10:52:36;;;;;;;1.42;1.00;;;;;;;10.13;78.49;94963.84;5085170;28;20036;-60
2021/11/02 10:55:07;;;;;;;1.00;1.00;;;;;;;10.29;76.68;94958.66;5082284;28;20048;-60
2021/11/02 10:58:10;;;;;;;1.15;1.15;;;;;;;10.43;73.44;94961.69;5083024;28;20091;-60
2021/11/02 11:00:40;;;;;;;0.82;0.82;;;;;;;10.66;70.92;94961.09;5081930;28;20028;-60
2021/11/02 11:03:11;;;;;;;1.20;1.20;;;;;;;10.84;72.22;94953.09;5075927;28;20056;-60
2021/11/02 11:05:36;;;;;;;1.55;1.45;;;;;;;11.21;68.02;94951.00;5084732;28;20048;-60
2021/11/02 11:08:11;;;;;;;1.20;1.20;;;;;;;11.00;67.94;94952.31;5086405;28;20177;-59
2021/11/02 11:10:37;;;;;;;1.50;1.40;;;;;;;11.21;68.50;94948.38;5084603;28;20016;-60
2021/11/02 11:13:09;;;;;;;1.25;1.20;;;;;;;11.25;68.92;94942.59;5087201;28;20020;-59
2021/11/02 11:15:35;;;;;;;1.33;1.25;;;;;;;11.35;66.63;94934.50;5085573;28;20020;-60
2021/11/02 11:18:06;;;;;;;1.00;1.00;;;;;;;11.46;64.58;94930.72;5088479;28;20020;-61
2021/11/02 11:20:33;;;;;;;0.90;0.90;;;;;;;11.39;66.85;94930.59;5089562;28;20039;-57
2021/11/02 11:23:05;;;;;;;1.88;1.13;;;;;;;11.56;65.44;94926.13;5088014;28;20051;-58
2021/11/02 11:25:49;;;;;;;1.08;1.08;;;;;;;11.64;67.33;94920.00;5086628;28;20384;-59
2021/11/02 11:28:19;;;;;;;2.33;1.10;;;;;;;11.87;67.21;94921.94;5079371;28;20024;-58
2021/11/02 11:30:48;;;;;;;1.17;1.00;;;;;;;11.90;68.91;94917.13;5084631;28;20028;-59
2021/11/02 11:33:18;;;;;;;0.88;0.88;;;;;;;11.95;68.38;94914.00;5082792;28;20446;-58
2021/11/02 11:35:45;;;;;;;2.17;1.33;;;;;;;11.84;68.35;94922.28;5074711;28;20507;-58
2021/11/02 11:38:15;;;;;;;2.67;1.30;;;;;;;11.70;70.43;94916.69;5074638;28;20044;-58
2021/11/02 11:40:45;;;;;;;1.73;1.02;;;;;;;11.64;72.40;94909.47;5077976;28;20029;-58
2021/11/02 11:43:13;;;;;;;1.00;1.00;;;;;;;11.76;73.51;94909.94;5081882;28;20062;-58
2021/11/02 11:45:46;;;;;;;1.92;1.23;;;;;;;11.96;72.44;94907.72;5079540;28;20028;-58
2021/11/02 11:48:23;;;;;;;1.15;0.77;;;;;;;11.90;65.39;94900.50;5076805;28;20046;-59
2021/11/02 11:50:50;;;;;;;0.80;0.80;;;;;;;11.89;63.83;94891.75;5077736;28;20020;-65
2021/11/02 11:53:17;;;;;;;0.65;0.65;;;;;;;11.79;63.42;94885.03;5080256;28;20058;-58
2021/11/02 11:55:46;;;;;;;1.23;1.13;;;;;;;11.83;62.47;94894.25;5078931;28;20036;-58
2021/11/02 11:58:24;;;;;;;0.90;0.90;;;;;;;11.41;65.65;94883.81;5082765;28;20437;-58
2021/11/02 12:00:53;;;;;;;0.70;0.70;;;;;;;11.39;64.56;94883.16;5078339;28;20016;-59
2021/11/02 12:03:25;;;;;;;0.85;0.68;;;;;;;11.65;62.63;94876.84;5082182;28;20090;-58
2021/11/02 12:06:00;;;;;;;3.13;1.00;;;;;;;11.50;64.58;94878.50;5080456;28;20105;-58
2021/11/02 12:08:44;;;;;;;0.80;0.80;;;;;;;11.57;61.19;94882.09;5074971;28;20498;-61
2021/11/02 12:11:17;;;;;;;2.90;0.82;;;;;;;11.54;61.74;94879.81;5092273;28;20030;-58
2021/11/02 12:13:46;;;;;;;0.60;0.60;;;;;;;11.35;62.90;94883.63;5087813;28;20522;-59
2021/11/02 12:16:27;;;;;;;1.83;1.00;;;;;;;11.28;64.64;94886.09;5076444;28;20017;-59
2021/11/02 12:19:01;;;;;;;0.80;0.80;;;;;;;11.30;64.48;94890.25;5084481;28;20182;-59
2021/11/02 12:21:30;;;;;;;1.30;0.90;;;;;;;11.32;65.85;94887.41;5081458;28;20130;-61
2021/11/02 12:24:01;;;;;;;0.95;0.80;;;;;;;11.30;66.34;94887.59;5079303;28;20028;-60
2021/11/02 12:26:47;;;;;;;1.70;0.80;;;;;;;11.31;63.05;94891.88;5076622;28;20019;-60
2021/11/02 12:29:27;;;;;;;0.82;0.82;;;;;;;11.20;64.25;94883.50;5077434;28;20020;-60
2021/11/02 12:32:11;;;;;;;1.52;1.42;;;;;;;11.38;63.81;94881.47;5080780;28;20036;-58
2021/11/02 12:35:05;;;;;;;1.17;1.17;;;;;;;11.39;65.38;94883.16;5080392;28;20070;-59
2021/11/02 12:37:32;;;;;;;1.63;1.48;;;;;;;11.58;63.94;94878.47;5084288;28;20034;-60
2021/11/02 12:40:15;;;;;;;2.60;2.40;;;;;;;11.68;64.19;94873.03;5077992;28;20032;-59
2021/11/02 12:42:43;;;;;;;1.63;1.48;;;;;;;11.68;64.96;94879.13;5080710;28;20500;-61
2021/11/02 12:45:10;;;;;;;2.00;1.38;;;;;;;11.81;61.61;94869.84;5070820;28;20036;-59
2021/11/02 12:47:46;;;;;;;1.05;1.00;;;;;;;11.89;61.03;94870.66;5084860;28;20101;-59
2021/11/02 12:50:13;;;;;;;0.90;0.90;;;;;;;11.60;62.28;94872.06;5080699;28;20031;-59
2021/11/02 12:52:40;;;;;;;1.10;1.10;;;;;;;11.65;62.23;94873.34;5079844;28;20024;-59
2021/11/02 12:55:10;;;;;;;1.33;1.20;;;;;;;11.65;60.58;94866.28;5080935;28;20032;-58
2021/11/02 12:57:38;;;;;;;1.27;1.20;;;;;;;11.42;60.25;94866.16;5078053;28;20029;-58
2021/11/02 13:00:09;;;;;;;4.18;0.95;;;;;;;11.30;62.38;94863.03;5085192;28;20028;-58
2021/11/02 13:02:38;;;;;;;1.20;1.10;;;;;;;11.31;60.84;94862.06;5078608;28;20032;-58
2021/11/02 13:05:15;;;;;;;0.90;0.90;;;;;;;11.15;60.27;94852.38;5078292;28;20400;-57
2021/11/02 13:07:42;;;;;;;0.90;0.90;;;;;;;11.13;59.53;94851.72;5086405;28;20036;-57
2021/11/02 13:10:30;;;;;;;1.10;1.10;;;;;;;11.23;59.52;94846.28;5083513;28;20027;-57
2021/11/02 13:13:04;;;;;;;1.52;1.27;;;;;;;11.12;60.55;94844.81;5083464;28;20024;-59
2021/11/02 13:15:47;;;;;;;1.27;1.00;;;;;;;11.14;59.82;94838.34;5086571;28;20521;-59
2021/11/02 13:18:39;;;;;;;1.08;1.08;;;;;;;11.17;59.58;94832.78;5114599;27;20020;-59
2021/11/02 13:21:26;;;;;;;1.55;1.02;;;;;;;11.39;56.98;94827.81;5081089;28;20032;-56
2021/11/02 13:23:57;;;;;;;2.55;0.77;;;;;;;11.14;58.05;94825.19;5082091;28;20044;-59
2021/11/02 13:26:24;;;;;;;1.60;1.00;;;;;;;10.99;58.79;94829.50;5074263;28;20041;-59
2021/11/02 13:28:50;;;;;;;1.23;1.23;;;;;;;10.79;61.35;94821.94;5089574;28;20107;-58
2021/11/02 13:31:35;;;;;;;0.98;0.98;;;;;;;10.95;61.54;94820.28;5081057;28;20024;-63
2021/11/02 13:34:04;;;;;;;1.67;1.57;;;;;;;11.05;60.82;94828.84;5078935;28;20065;-58
2021/11/02 13:36:31;;;;;;;9.90;1.10;;;;;;;10.99;60.19;94813.69;5080360;28;20031;-59
2021/11/02 13:39:15;;;;;;;2.58;1.20;;;;;;;10.91;62.62;94813.69;5083595;28;21580;-58
2021/11/02 13:41:51;;;;;;;1.38;1.27;;;;;;;10.89;63.32;94804.16;5080429;28;20044;-58
2021/11/02 13:44:18;;;;;;;1.70;1.60;;;;;;;11.08;64.29;94806.63;5078895;28;20378;-57
2021/11/02 13:46:47;;;;;;;1.60;1.50;;;;;;;11.32;62.41;94792.56;5084532;28;20029;-58
2021/11/02 13:49:14;;;;;;;1.52;1.38;;;;;;;11.66;63.06;94798.53;5084013;28;20031;-57
2021/11/02 13:51:40;;;;;;;2.78;1.45;;;;;;;12.10;61.55;94791.97;5082016;28;20449;-57
2021/11/02 13:54:07;;;;;;;1.27;1.27;;;;;;;12.50;62.28;94787.44;5077462;28;20248;-57
2021/11/02 13:56:35;;;;;;;3.05;2.75;;;;;;;12.49;64.80;94795.50;5079796;28;20028;-57
2021/11/02 13:59:02;;;;;;;5.03;3.50;;;;;;;12.31;66.45;94792.16;5079641;28;20028;-55
2021/11/02 14:01:36;;;;;;;2.45;2.20;;;;;;;12.27;67.03;94796.16;5080637;28;20511;-58
2021/11/02 14:04:06;;;;;;;2.20;2.00;;;;;;;12.20;66.39;94784.63;5081842;28;20024;-57
2021/11/02 14:06:36;;;;;;;2.58;1.67;;;;;;;12.11;68.04;94790.97;5076740;28;20020;-57
2021/11/02 14:09:04;;;;;;;3.13;1.35;;;;;;;11.78;68.81;94773.47;5079298;28;20110;-57
2021/11/02 14:11:35;;;;;;;1.15;1.10;;;;;;;11.61;70.00;94778.00;5087033;28;20043;-55
2021/11/02 14:14:01;;;;;;;2.25;1.55;;;;;;;11.50;70.64;94775.72;5086129;28;20403;-57
2021/11/02 14:16:31;;;;;;;2.05;1.80;;;;;;;11.44;72.36;94774.56;5087926;28;20035;-57
2021/11/02 14:18:58;;;;;;;1.17;1.15;;;;;;;11.52;72.68;94782.47;5084636;28;20040;-58
2021/11/02 14:21:50;;;;;;;3.95;1.80;;;;;;;11.87;72.00;94774.25;5084912;28;20036;-56
2021/11/02 14:24:32;;;;;;;9.77;1.42;;;;;;;12.14;70.58;94774.78;5085026;28;20028;-56
2021/11/02 14:26:58;;;;;;;1.98;1.30;;;;;;;12.27;70.67;94780.31;5084378;28;20103;-55
2021/11/02 14:29:47;;;;;;;6.32;1.27;;;;;;;12.39;68.41;94779.91;5084486;28;20190;-54
2021/11/02 14:32:45;;;;;;;1.40;1.30;;;;;;;12.45;68.28;94773.91;5080066;28;20039;-56
2021/11/02 14:35:12;;;;;;;2.83;2.58;;;;;;;12.61;69.06;94770.34;5083935;28;20028;-55
2021/11/02 14:37:51;;;;;;;5.78;2.38;;;;;;;12.65;68.76;94778.72;5083082;28;20097;-57
2021/11/02 14:40:27;;;;;;;1.92;1.80;;;;;;;12.80;69.40;94770.84;5084799;28;20032;-57
2021/11/02 14:42:54;;;;;;;2.33;2.13;;;;;;;12.61;70.18;94773.00;5089207;28;20077;-55
2021/11/02 14:45:40;;;;;;;1.90;1.65;;;;;;;12.53;70.59;94773.03;5080803;28;20031;-58
2021/11/02 14:48:24;;;;;;;2.10;1.60;;;;;;;12.35;69.44;94770.69;5083145;28;20031;-57
2021/11/02 14:51:04;;;;;;;1.98;1.67;;;;;;;12.16;71.17;94767.50;5078127;28;20031;-56
2021/11/02 14:53:31;;;;;;;1.77;1.67;;;;;;;12.15;71.04;94760.59;5084791;28;20024;-55
2021/11/02 14:56:01;;;;;;;1.50;1.40;;;;;;;11.98;71.48;94760.66;5084147;28;20115;-56
2021/11/02 14:58:41;;;;;;;1.80;1.55;;;;;;;12.02;70.91;94756.69;5083077;28;20089;-56
2021/11/02 15:01:22;;;;;;;1.70;1.60;;;;;;;11.83;72.18;94757.94;5083654;28;20028;-55
2021/11/02 15:03:58;;;;;;;1.80;1.70;;;;;;;11.72;73.63;94748.59;5078480;28;20030;-56
2021/11/02 15:06:28;;;;;;;1.58;1.48;;;;;;;11.70;73.22;94742.69;5080259;28;20024;-53
2021/11/02 15:08:54;;;;;;;6.40;2.00;;;;;;;11.67;74.78;94742.19;5084181;28;20016;-57
2021/11/02 15:11:20;;;;;;;2.75;2.45;;;;;;;11.70;75.46;94747.13;5082151;28;20028;-58
2021/11/02 15:13:54;;;;;;;1.73;1.60;;;;;;;11.66;75.30;94738.75;5079954;28;20016;-59
2021/11/02 15:16:22;;;;;;;1.80;1.70;;;;;;;11.38;76.89;94741.00;5084573;28;20028;-58
2021/11/02 15:18:51;;;;;;;3.63;2.05;;;;;;;11.06;76.98;94745.38;5082210;28;20543;-58
2021/11/02 15:21:32;;;;;;;2.63;2.45;;;;;;;10.86;77.47;94732.56;5085816;28;20119;-58
2021/11/02 15:24:06;;;;;;;3.25;2.35;;;;;;;10.73;77.18;94733.09;5085461;28;20031;-58
2021/11/02 15:26:42;;;;;;;10.90;7.10;;;;;;;10.55;77.76;94733.25;5084611;28;20111;-56
2021/11/02 15:29:08;;;;;;;;;;;;;;;10.45;77.71;94736.03;5084854;28;20487;-58
2021/11/02 15:31:33;;;;;;;13.30;6.75;;;;;;;10.35;77.82;94728.28;5083202;28;19923;-58
2021/11/02 15:34:14;;;;;;;3.90;2.40;;;;;;;10.11;80.54;94723.84;5077592;28;20020;-58
2021/11/02 15:36:39;;;;;;;4.25;3.75;;;;;;;9.95;81.26;94733.34;5082171;28;20503;-58
2021/11/02 15:39:07;;;;;;;3.30;3.10;;;;;;;9.80;81.20;94727.06;5077877;28;20063;-58
2021/11/02 15:41:33;;;;;;;5.05;3.70;;;;;;;9.72;82.14;94722.59;5085064;28;20782;-58
2021/11/02 15:44:05;;;;;;;2.80;2.60;;;;;;;9.58;83.21;94721.41;5082952;28;20024;-58
2021/11/02 15:46:38;;;;;;;6.18;2.63;;;;;;;9.52;83.27;94716.81;5080082;28;20032;-58
2021/11/02 15:49:11;;;;;;;6.72;3.47;;;;;;;9.56;83.10;94718.97;5084108;28;20040;-58
2021/11/02 15:51:41;;;;;;;2.92;2.70;;;;;;;9.50;84.48;94718.78;5086989;28;20036;-59
2021/11/02 15:54:12;;;;;;;3.33;2.30;;;;;;;9.31;85.87;94724.13;5079712;28;20613;-59
2021/11/02 15:56:38;;;;;;;1.92;1.70;;;;;;;9.17;85.88;94725.56;5083077;28;20031;-59
2021/11/02 15:59:06;;;;;;;4.30;1.80;;;;;;;9.16;85.56;94723.06;5076145;28;20060;-60
2021/11/02 16:01:42;;;;;;;3.03;2.47;;;;;;;9.13;85.46;94731.28;5077564;28;20037;-60
2021/11/02 16:04:24;;;;;;;8.23;3.25;;;;;;;9.05;86.77;94725.97;5079745;28;20076;-60
2021/11/02 16:07:09;;;;;;;3.35;2.83;;;;;;;9.02;87.26;94719.22;5081097;28;20061;-59
2021/11/02 16:09:49;;;;;;;3.00;2.15;;;;;;;8.83;87.50;94713.22;5084118;28;20037;-60
2021/11/02 16:12:23;;;;;;;6.32;2.20;;;;;;;8.67;87.73;94705.25;5082908;28;20024;-60
2021/11/02 16:14:51;;;;;;;17.73;15.15;;;;;;;8.57;88.36;94713.22;5082658;28;20025;-60
2021/11/02 16:17:17;;;;;;;32.10;24.67;;;;;;;8.47;88.82;94708.03;5087365;28;20089;-59
2021/11/02 16:19:43;;;;;;;29.48;23.30;;;;;;;8.36;89.68;94711.72;5082039;28;20090;-60
2021/11/02 16:22:09;;;;;;;18.88;12.20;;;;;;;8.26;90.82;94706.56;5083512;28;20032;-60
2021/11/02 16:24:36;;;;;;;21.42;18.10;;;;;;;8.19;89.93;94702.91;5082174;28;20020;-60
2021/11/02 16:27:21;;;;;;;10.85;9.80;;;;;;;8.07;90.01;94696.22;5086857;28;20024;-61
2021/11/02 16:29:48;;;;;;;6.60;5.97;;;;;;;7.99;90.17;94692.56;5078706;28;20032;-60
2021/11/02 16:32:22;;;;;;;6.75;3.53;;;;;;;7.96;90.81;94698.13;5082500;28;20270;-59
2021/11/02 16:34:48;;;;;;;6.18;5.68;;;;;;;7.88;91.94;94701.50;5082269;28;20051;-59
2021/11/02 16:37:28;;;;;;;9.57;6.32;;;;;;;7.83;92.40;94695.03;5083282;28;20058;-59
2021/11/02 16:40:21;;;;;;;7.45;5.72;;;;;;;7.70;93.18;94691.00;5075804;28;20041;-59
2021/11/02 16:42:56;;;;;;;5.47;4.97;;;;;;;7.59;93.90;94684.19;5074611;28;20132;-59
2021/11/02 16:45:22;;;;;;;9.80;7.40;;;;;;;7.57;93.98;94698.41;5073626;28;20124;-59
2021/11/02 16:47:59;;;;;;;6.88;6.20;;;;;;;7.54;93.35;94694.28;5085273;28;20016;-59
2021/11/02 16:50:34;;;;;;;6.40;5.90;;;;;;;7.52;93.19;94684.94;5085968;28;20077;-59
2021/11/02 16:53:11;;;;;;;5.30;4.82;;;;;;;7.47;93.72;94684.56;5093545;28;20024;-59
2021/11/02 16:55:40;;;;;;;7.18;4.82;;;;;;;7.40;94.91;94684.31;5083660;28;20078;-59
2021/11/02 16:58:21;;;;;;;6.65;6.05;;;;;;;7.31;94.98;94676.38;5081564;28;20115;-59
2021/11/02 17:00:47;;;;;;;14.27;10.50;;;;;;;7.21;95.81;94677.41;5077680;28;20035;-59
2021/11/02 17:03:15;;;;;;;18.02;16.13;;;;;;;7.22;95.49;94681.66;5080844;28;20028;-59
2021/11/02 17:05:41;;;;;;;15.68;12.82;;;;;;;7.21;94.64;94678.22;5085418;28;20438;-59
2021/11/02 17:08:14;;;;;;;19.35;16.58;;;;;;;7.14;95.27;94679.78;5085362;28;20058;-59
2021/11/02 17:10:49;;;;;;;13.15;11.70;;;;;;;7.06;95.00;94675.25;5080121;28;20036;-58
2021/11/02 17:13:23;;;;;;;10.20;8.00;;;;;;;7.01;94.78;94680.91;5080983;28;20074;-59